sensor_id;sensor_type;location;lat;lon;timestamp;P1;durP1;ratioP1;P2;durP2;ratioP2
52274;SDS011;38228;50.940;4.024;2023-09-19T00:01:19;14.40;;;3.00;;
52274;SDS011;38228;50.940;4.024;2023-09-19T00:03:45;13.07;;;2.53;;
52274;SDS011;38228;50.940;4.024;2023-09-19T00:06:11;17.50;;;2.72;;
52274;SDS011;38228;50.940;4.024;2023-09-19T00:08:41;14.35;;;2.63;;
52274;SDS011;38228;50.940;4.024;2023-09-19T00:11:09;14.70;;;2.65;;
52274;SDS011;38228;50.940;4.024;2023-09-19T00:13:35;17.52;;;3.08;;
52274;SDS011;38228;50.940;4.024;2023-09-19T00:16:01;14.40;;;2.78;;
52274;SDS011;38228;50.940;4.024;2023-09-19T00:18:35;12.85;;;2.72;;
52274;SDS011;38228;50.940;4.024;2023-09-19T00:21:02;17.45;;;2.55;;
52274;SDS011;38228;50.940;4.024;2023-09-19T00:23:29;16.75;;;2.78;;
52274;SDS011;38228;50.940;4.024;2023-09-19T00:25:59;14.00;;;2.30;;
52274;SDS011;38228;50.940;4.024;2023-09-19T00:28:26;15.23;;;2.85;;
52274;SDS011;38228;50.940;4.024;2023-09-19T00:30:55;15.15;;;2.50;;
52274;SDS011;38228;50.940;4.024;2023-09-19T00:33:21;21.50;;;3.45;;
52274;SDS011;38228;50.940;4.024;2023-09-19T00:35:50;21.67;;;3.70;;
52274;SDS011;38228;50.940;4.024;2023-09-19T00:38:18;14.40;;;2.58;;
52274;SDS011;38228;50.940;4.024;2023-09-19T00:40:48;12.55;;;2.25;;
52274;SDS011;38228;50.940;4.024;2023-09-19T00:43:17;14.38;;;2.53;;
52274;SDS011;38228;50.940;4.024;2023-09-19T00:45:44;14.68;;;2.78;;
52274;SDS011;38228;50.940;4.024;2023-09-19T00:48:13;23.10;;;3.35;;
52274;SDS011;38228;50.940;4.024;2023-09-19T00:50:41;15.98;;;2.88;;
52274;SDS011;38228;50.940;4.024;2023-09-19T00:53:09;12.18;;;2.83;;
52274;SDS011;38228;50.940;4.024;2023-09-19T00:55:38;16.40;;;3.10;;
52274;SDS011;38228;50.940;4.024;2023-09-19T00:58:09;12.73;;;2.70;;
52274;SDS011;38228;50.940;4.024;2023-09-19T01:00:36;13.35;;;3.15;;
52274;SDS011;38228;50.940;4.024;2023-09-19T01:03:02;15.43;;;2.85;;
52274;SDS011;38228;50.940;4.024;2023-09-19T01:05:28;16.65;;;2.70;;
52274;SDS011;38228;50.940;4.024;2023-09-19T01:07:57;18.85;;;2.60;;
52274;SDS011;38228;50.940;4.024;2023-09-19T01:10:23;20.10;;;3.33;;
52274;SDS011;38228;50.940;4.024;2023-09-19T01:18:16;13.25;;;2.75;;
52274;SDS011;38228;50.940;4.024;2023-09-19T01:21:15;16.77;;;3.10;;
52274;SDS011;38228;50.940;4.024;2023-09-19T01:29:43;12.10;;;2.95;;
52274;SDS011;38228;50.940;4.024;2023-09-19T01:32:13;18.27;;;2.92;;
52274;SDS011;38228;50.940;4.024;2023-09-19T01:37:17;16.88;;;3.20;;
52274;SDS011;38228;50.940;4.024;2023-09-19T01:39:48;19.92;;;2.75;;
52274;SDS011;38228;50.940;4.024;2023-09-19T01:42:24;12.93;;;2.67;;
52274;SDS011;38228;50.940;4.024;2023-09-19T01:45:03;16.13;;;2.85;;
52274;SDS011;38228;50.940;4.024;2023-09-19T01:47:33;19.80;;;3.00;;
52274;SDS011;38228;50.940;4.024;2023-09-19T01:50:49;17.13;;;2.47;;
52274;SDS011;38228;50.940;4.024;2023-09-19T01:53:26;15.73;;;2.40;;
52274;SDS011;38228;50.940;4.024;2023-09-19T01:55:58;14.60;;;2.47;;
52274;SDS011;38228;50.940;4.024;2023-09-19T01:58:29;13.65;;;2.85;;
52274;SDS011;38228;50.940;4.024;2023-09-19T02:01:00;13.20;;;2.53;;
52274;SDS011;38228;50.940;4.024;2023-09-19T02:03:26;14.75;;;2.90;;
52274;SDS011;38228;50.940;4.024;2023-09-19T02:05:54;14.88;;;2.72;;
52274;SDS011;38228;50.940;4.024;2023-09-19T02:08:20;19.15;;;2.70;;
52274;SDS011;38228;50.940;4.024;2023-09-19T02:10:50;16.77;;;2.78;;
52274;SDS011;38228;50.940;4.024;2023-09-19T02:13:21;16.73;;;2.75;;
52274;SDS011;38228;50.940;4.024;2023-09-19T02:15:52;15.68;;;2.95;;
52274;SDS011;38228;50.940;4.024;2023-09-19T02:18:19;18.92;;;3.05;;
52274;SDS011;38228;50.940;4.024;2023-09-19T02:20:45;25.60;;;3.45;;
52274;SDS011;38228;50.940;4.024;2023-09-19T02:23:11;15.43;;;3.13;;
52274;SDS011;38228;50.940;4.024;2023-09-19T02:25:38;9.95;;;2.22;;
52274;SDS011;38228;50.940;4.024;2023-09-19T02:28:04;14.18;;;3.42;;
52274;SDS011;38228;50.940;4.024;2023-09-19T02:30:31;14.38;;;3.35;;
52274;SDS011;38228;50.940;4.024;2023-09-19T02:32:57;20.17;;;2.90;;
52274;SDS011;38228;50.940;4.024;2023-09-19T02:35:23;14.75;;;2.90;;
52274;SDS011;38228;50.940;4.024;2023-09-19T02:37:51;18.23;;;3.00;;
52274;SDS011;38228;50.940;4.024;2023-09-19T02:40:17;15.30;;;2.50;;
52274;SDS011;38228;50.940;4.024;2023-09-19T02:42:47;15.35;;;2.97;;
52274;SDS011;38228;50.940;4.024;2023-09-19T02:45:17;18.67;;;2.70;;
52274;SDS011;38228;50.940;4.024;2023-09-19T02:47:47;19.20;;;2.95;;
52274;SDS011;38228;50.940;4.024;2023-09-19T02:50:13;15.07;;;2.80;;
52274;SDS011;38228;50.940;4.024;2023-09-19T02:52:43;14.30;;;1.95;;
52274;SDS011;38228;50.940;4.024;2023-09-19T02:55:09;16.95;;;2.83;;
52274;SDS011;38228;50.940;4.024;2023-09-19T02:57:36;13.90;;;2.65;;
52274;SDS011;38228;50.940;4.024;2023-09-19T03:00:06;13.23;;;3.10;;
52274;SDS011;38228;50.940;4.024;2023-09-19T03:02:35;14.20;;;2.95;;
52274;SDS011;38228;50.940;4.024;2023-09-19T03:05:01;12.93;;;2.45;;
52274;SDS011;38228;50.940;4.024;2023-09-19T03:07:28;14.75;;;3.00;;
52274;SDS011;38228;50.940;4.024;2023-09-19T03:09:54;9.75;;;2.25;;
52274;SDS011;38228;50.940;4.024;2023-09-19T03:12:20;8.80;;;2.20;;
52274;SDS011;38228;50.940;4.024;2023-09-19T03:14:46;14.70;;;3.38;;
52274;SDS011;38228;50.940;4.024;2023-09-19T03:17:11;10.40;;;2.13;;
52274;SDS011;38228;50.940;4.024;2023-09-19T03:19:39;12.40;;;2.45;;
52274;SDS011;38228;50.940;4.024;2023-09-19T03:22:05;13.18;;;2.65;;
52274;SDS011;38228;50.940;4.024;2023-09-19T03:24:32;13.35;;;2.50;;
52274;SDS011;38228;50.940;4.024;2023-09-19T03:27:00;13.93;;;2.55;;
52274;SDS011;38228;50.940;4.024;2023-09-19T03:29:26;14.50;;;3.05;;
52274;SDS011;38228;50.940;4.024;2023-09-19T03:31:52;13.40;;;3.03;;
52274;SDS011;38228;50.940;4.024;2023-09-19T03:34:19;10.55;;;2.60;;
52274;SDS011;38228;50.940;4.024;2023-09-19T03:36:45;14.60;;;2.72;;
52274;SDS011;38228;50.940;4.024;2023-09-19T03:39:11;17.33;;;2.63;;
52274;SDS011;38228;50.940;4.024;2023-09-19T03:41:37;15.40;;;3.00;;
52274;SDS011;38228;50.940;4.024;2023-09-19T03:44:04;14.88;;;2.70;;
52274;SDS011;38228;50.940;4.024;2023-09-19T03:46:30;22.42;;;3.17;;
52274;SDS011;38228;50.940;4.024;2023-09-19T03:48:57;18.23;;;3.25;;
52274;SDS011;38228;50.940;4.024;2023-09-19T03:51:22;19.98;;;3.17;;
52274;SDS011;38228;50.940;4.024;2023-09-19T03:53:48;14.77;;;2.50;;
52274;SDS011;38228;50.940;4.024;2023-09-19T03:56:16;16.02;;;3.22;;
52274;SDS011;38228;50.940;4.024;2023-09-19T03:58:42;16.17;;;2.72;;
52274;SDS011;38228;50.940;4.024;2023-09-19T04:01:08;14.63;;;2.85;;
52274;SDS011;38228;50.940;4.024;2023-09-19T04:03:34;15.50;;;3.15;;
52274;SDS011;38228;50.940;4.024;2023-09-19T04:06:10;18.52;;;2.95;;
52274;SDS011;38228;50.940;4.024;2023-09-19T04:08:40;19.55;;;3.20;;
52274;SDS011;38228;50.940;4.024;2023-09-19T04:11:06;15.90;;;3.00;;
52274;SDS011;38228;50.940;4.024;2023-09-19T04:13:32;19.50;;;3.08;;
52274;SDS011;38228;50.940;4.024;2023-09-19T04:15:58;21.13;;;2.92;;
52274;SDS011;38228;50.940;4.024;2023-09-19T04:18:23;17.58;;;2.83;;
52274;SDS011;38228;50.940;4.024;2023-09-19T04:20:50;14.32;;;2.83;;
52274;SDS011;38228;50.940;4.024;2023-09-19T04:23:16;16.42;;;3.13;;
52274;SDS011;38228;50.940;4.024;2023-09-19T04:25:42;24.35;;;3.42;;
52274;SDS011;38228;50.940;4.024;2023-09-19T04:28:08;15.85;;;2.85;;
52274;SDS011;38228;50.940;4.024;2023-09-19T04:30:36;18.77;;;2.72;;
52274;SDS011;38228;50.940;4.024;2023-09-19T04:33:02;18.38;;;3.08;;
52274;SDS011;38228;50.940;4.024;2023-09-19T04:35:28;17.10;;;3.22;;
52274;SDS011;38228;50.940;4.024;2023-09-19T04:37:56;12.50;;;3.13;;
52274;SDS011;38228;50.940;4.024;2023-09-19T04:40:22;16.35;;;3.00;;
52274;SDS011;38228;50.940;4.024;2023-09-19T04:42:56;16.40;;;2.90;;
52274;SDS011;38228;50.940;4.024;2023-09-19T04:45:22;17.17;;;2.63;;
52274;SDS011;38228;50.940;4.024;2023-09-19T04:47:48;19.92;;;2.95;;
52274;SDS011;38228;50.940;4.024;2023-09-19T04:50:14;17.00;;;3.00;;
52274;SDS011;38228;50.940;4.024;2023-09-19T04:52:42;22.83;;;2.83;;
52274;SDS011;38228;50.940;4.024;2023-09-19T04:55:12;15.55;;;2.42;;
52274;SDS011;38228;50.940;4.024;2023-09-19T04:57:42;19.38;;;3.40;;
52274;SDS011;38228;50.940;4.024;2023-09-19T05:00:18;16.77;;;3.40;;
52274;SDS011;38228;50.940;4.024;2023-09-19T05:02:51;19.88;;;3.00;;
52274;SDS011;38228;50.940;4.024;2023-09-19T05:05:17;22.13;;;3.33;;
52274;SDS011;38228;50.940;4.024;2023-09-19T05:07:47;17.95;;;2.83;;
52274;SDS011;38228;50.940;4.024;2023-09-19T05:10:13;15.23;;;2.97;;
52274;SDS011;38228;50.940;4.024;2023-09-19T05:12:39;17.33;;;2.72;;
52274;SDS011;38228;50.940;4.024;2023-09-19T05:15:06;19.40;;;3.00;;
52274;SDS011;38228;50.940;4.024;2023-09-19T05:17:35;17.80;;;2.78;;
52274;SDS011;38228;50.940;4.024;2023-09-19T05:20:01;19.52;;;3.05;;
52274;SDS011;38228;50.940;4.024;2023-09-19T05:22:40;15.93;;;3.65;;
52274;SDS011;38228;50.940;4.024;2023-09-19T05:25:08;15.77;;;2.70;;
52274;SDS011;38228;50.940;4.024;2023-09-19T05:27:40;14.90;;;2.67;;
52274;SDS011;38228;50.940;4.024;2023-09-19T05:30:07;17.73;;;3.00;;
52274;SDS011;38228;50.940;4.024;2023-09-19T05:32:33;18.73;;;2.95;;
52274;SDS011;38228;50.940;4.024;2023-09-19T05:34:59;16.10;;;2.40;;
52274;SDS011;38228;50.940;4.024;2023-09-19T05:37:25;16.90;;;2.58;;
52274;SDS011;38228;50.940;4.024;2023-09-19T05:39:51;18.75;;;3.15;;
52274;SDS011;38228;50.940;4.024;2023-09-19T05:42:18;17.17;;;2.80;;
52274;SDS011;38228;50.940;4.024;2023-09-19T05:44:44;20.23;;;3.20;;
52274;SDS011;38228;50.940;4.024;2023-09-19T05:47:10;15.68;;;2.55;;
52274;SDS011;38228;50.940;4.024;2023-09-19T05:49:36;17.70;;;3.10;;
52274;SDS011;38228;50.940;4.024;2023-09-19T05:52:05;15.85;;;3.15;;
52274;SDS011;38228;50.940;4.024;2023-09-19T05:54:32;22.77;;;2.58;;
52274;SDS011;38228;50.940;4.024;2023-09-19T05:56:59;16.42;;;2.88;;
52274;SDS011;38228;50.940;4.024;2023-09-19T05:59:26;17.63;;;2.80;;
52274;SDS011;38228;50.940;4.024;2023-09-19T06:01:52;17.05;;;2.85;;
52274;SDS011;38228;50.940;4.024;2023-09-19T06:04:18;20.33;;;2.85;;
52274;SDS011;38228;50.940;4.024;2023-09-19T06:06:45;17.67;;;2.60;;
52274;SDS011;38228;50.940;4.024;2023-09-19T06:09:13;18.05;;;3.20;;
52274;SDS011;38228;50.940;4.024;2023-09-19T06:11:41;17.48;;;3.42;;
52274;SDS011;38228;50.940;4.024;2023-09-19T06:14:08;18.65;;;2.72;;
52274;SDS011;38228;50.940;4.024;2023-09-19T06:16:35;17.55;;;3.58;;
52274;SDS011;38228;50.940;4.024;2023-09-19T06:19:03;22.80;;;3.05;;
52274;SDS011;38228;50.940;4.024;2023-09-19T06:21:31;14.00;;;2.63;;
52274;SDS011;38228;50.940;4.024;2023-09-19T06:23:59;14.73;;;2.67;;
52274;SDS011;38228;50.940;4.024;2023-09-19T06:26:25;19.17;;;2.60;;
52274;SDS011;38228;50.940;4.024;2023-09-19T06:28:52;20.05;;;2.83;;
52274;SDS011;38228;50.940;4.024;2023-09-19T06:31:18;13.30;;;2.53;;
52274;SDS011;38228;50.940;4.024;2023-09-19T06:33:46;11.98;;;2.28;;
52274;SDS011;38228;50.940;4.024;2023-09-19T06:36:11;17.10;;;3.00;;
52274;SDS011;38228;50.940;4.024;2023-09-19T06:38:37;14.20;;;3.00;;
52274;SDS011;38228;50.940;4.024;2023-09-19T06:41:04;19.52;;;3.08;;
52274;SDS011;38228;50.940;4.024;2023-09-19T06:43:31;11.90;;;2.40;;
52274;SDS011;38228;50.940;4.024;2023-09-19T06:45:58;15.45;;;2.50;;
52274;SDS011;38228;50.940;4.024;2023-09-19T06:48:25;15.68;;;2.47;;
52274;SDS011;38228;50.940;4.024;2023-09-19T06:50:55;18.05;;;2.65;;
52274;SDS011;38228;50.940;4.024;2023-09-19T06:53:23;12.73;;;2.50;;
52274;SDS011;38228;50.940;4.024;2023-09-19T06:55:50;13.98;;;2.72;;
52274;SDS011;38228;50.940;4.024;2023-09-19T06:58:16;14.63;;;2.33;;
52274;SDS011;38228;50.940;4.024;2023-09-19T07:00:42;19.67;;;2.55;;
52274;SDS011;38228;50.940;4.024;2023-09-19T07:03:09;15.25;;;2.67;;
52274;SDS011;38228;50.940;4.024;2023-09-19T07:05:38;10.38;;;2.65;;
52274;SDS011;38228;50.940;4.024;2023-09-19T07:08:05;16.02;;;2.85;;
52274;SDS011;38228;50.940;4.024;2023-09-19T07:10:32;11.60;;;2.33;;
52274;SDS011;38228;50.940;4.024;2023-09-19T07:12:59;15.93;;;3.15;;
52274;SDS011;38228;50.940;4.024;2023-09-19T07:15:26;14.63;;;2.70;;
52274;SDS011;38228;50.940;4.024;2023-09-19T07:17:53;14.18;;;2.30;;
52274;SDS011;38228;50.940;4.024;2023-09-19T07:20:19;15.23;;;3.00;;
52274;SDS011;38228;50.940;4.024;2023-09-19T07:22:46;11.68;;;2.60;;
52274;SDS011;38228;50.940;4.024;2023-09-19T07:25:13;14.63;;;2.70;;
52274;SDS011;38228;50.940;4.024;2023-09-19T07:27:42;10.88;;;1.90;;
52274;SDS011;38228;50.940;4.024;2023-09-19T07:30:09;14.82;;;2.40;;
52274;SDS011;38228;50.940;4.024;2023-09-19T07:32:35;18.98;;;2.90;;
52274;SDS011;38228;50.940;4.024;2023-09-19T07:35:06;14.45;;;2.10;;
52274;SDS011;38228;50.940;4.024;2023-09-19T07:37:32;18.73;;;2.80;;
52274;SDS011;38228;50.940;4.024;2023-09-19T07:39:58;14.57;;;2.70;;
52274;SDS011;38228;50.940;4.024;2023-09-19T07:42:26;10.80;;;2.45;;
52274;SDS011;38228;50.940;4.024;2023-09-19T07:44:52;17.77;;;2.85;;
52274;SDS011;38228;50.940;4.024;2023-09-19T07:47:19;16.38;;;2.53;;
52274;SDS011;38228;50.940;4.024;2023-09-19T07:49:49;14.15;;;2.80;;
52274;SDS011;38228;50.940;4.024;2023-09-19T07:52:14;13.63;;;2.80;;
52274;SDS011;38228;50.940;4.024;2023-09-19T07:54:41;15.80;;;2.75;;
52274;SDS011;38228;50.940;4.024;2023-09-19T07:57:09;21.33;;;2.60;;
52274;SDS011;38228;50.940;4.024;2023-09-19T07:59:36;15.27;;;2.80;;
52274;SDS011;38228;50.940;4.024;2023-09-19T08:02:03;15.48;;;2.45;;
52274;SDS011;38228;50.940;4.024;2023-09-19T08:04:30;15.68;;;2.67;;
52274;SDS011;38228;50.940;4.024;2023-09-19T08:06:57;14.02;;;2.53;;
52274;SDS011;38228;50.940;4.024;2023-09-19T08:09:25;15.38;;;2.53;;
52274;SDS011;38228;50.940;4.024;2023-09-19T08:11:52;17.02;;;2.53;;
52274;SDS011;38228;50.940;4.024;2023-09-19T08:14:18;12.88;;;2.63;;
52274;SDS011;38228;50.940;4.024;2023-09-19T08:16:44;16.30;;;2.75;;
52274;SDS011;38228;50.940;4.024;2023-09-19T08:19:10;15.27;;;2.63;;
52274;SDS011;38228;50.940;4.024;2023-09-19T08:21:36;15.32;;;2.88;;
52274;SDS011;38228;50.940;4.024;2023-09-19T08:24:02;11.27;;;2.10;;
52274;SDS011;38228;50.940;4.024;2023-09-19T08:26:29;15.63;;;2.92;;
52274;SDS011;38228;50.940;4.024;2023-09-19T08:28:55;17.60;;;2.65;;
52274;SDS011;38228;50.940;4.024;2023-09-19T08:31:22;14.02;;;2.97;;
52274;SDS011;38228;50.940;4.024;2023-09-19T08:33:48;14.68;;;2.13;;
52274;SDS011;38228;50.940;4.024;2023-09-19T08:36:16;15.77;;;2.35;;
52274;SDS011;38228;50.940;4.024;2023-09-19T08:38:42;14.82;;;2.53;;
52274;SDS011;38228;50.940;4.024;2023-09-19T08:41:09;11.55;;;2.58;;
52274;SDS011;38228;50.940;4.024;2023-09-19T08:43:35;12.63;;;2.03;;
52274;SDS011;38228;50.940;4.024;2023-09-19T08:46:11;14.63;;;2.42;;
52274;SDS011;38228;50.940;4.024;2023-09-19T08:48:41;12.30;;;2.30;;
52274;SDS011;38228;50.940;4.024;2023-09-19T08:51:18;15.95;;;2.70;;
52274;SDS011;38228;50.940;4.024;2023-09-19T08:54:06;15.63;;;2.28;;
52274;SDS011;38228;50.940;4.024;2023-09-19T08:56:33;14.60;;;2.70;;
52274;SDS011;38228;50.940;4.024;2023-09-19T08:59:00;15.07;;;2.75;;
52274;SDS011;38228;50.940;4.024;2023-09-19T09:01:28;14.00;;;2.42;;
52274;SDS011;38228;50.940;4.024;2023-09-19T09:03:55;14.38;;;2.63;;
52274;SDS011;38228;50.940;4.024;2023-09-19T09:06:22;11.52;;;2.45;;
52274;SDS011;38228;50.940;4.024;2023-09-19T09:08:52;17.10;;;2.45;;
52274;SDS011;38228;50.940;4.024;2023-09-19T09:11:19;10.82;;;2.10;;
52274;SDS011;38228;50.940;4.024;2023-09-19T09:13:46;13.10;;;2.15;;
52274;SDS011;38228;50.940;4.024;2023-09-19T09:16:13;11.25;;;2.85;;
52274;SDS011;38228;50.940;4.024;2023-09-19T09:18:44;14.30;;;2.17;;
52274;SDS011;38228;50.940;4.024;2023-09-19T09:21:19;14.63;;;1.85;;
52274;SDS011;38228;50.940;4.024;2023-09-19T09:23:50;10.27;;;2.05;;
52274;SDS011;38228;50.940;4.024;2023-09-19T09:26:17;9.50;;;2.00;;
52274;SDS011;38228;50.940;4.024;2023-09-19T09:29:03;10.52;;;2.30;;
52274;SDS011;38228;50.940;4.024;2023-09-19T09:31:28;13.77;;;2.13;;
52274;SDS011;38228;50.940;4.024;2023-09-19T09:33:56;9.98;;;1.60;;
52274;SDS011;38228;50.940;4.024;2023-09-19T09:36:36;8.63;;;1.85;;
52274;SDS011;38228;50.940;4.024;2023-09-19T09:39:03;8.98;;;1.58;;
52274;SDS011;38228;50.940;4.024;2023-09-19T09:41:41;11.27;;;1.98;;
52274;SDS011;38228;50.940;4.024;2023-09-19T09:44:15;11.23;;;1.80;;
52274;SDS011;38228;50.940;4.024;2023-09-19T09:46:46;11.57;;;1.80;;
52274;SDS011;38228;50.940;4.024;2023-09-19T09:49:22;13.35;;;2.10;;
52274;SDS011;38228;50.940;4.024;2023-09-19T09:54:26;10.35;;;1.90;;
52274;SDS011;38228;50.940;4.024;2023-09-19T09:56:59;12.35;;;1.77;;
52274;SDS011;38228;50.940;4.024;2023-09-19T10:02:45;9.82;;;1.95;;
52274;SDS011;38228;50.940;4.024;2023-09-19T10:05:16;10.02;;;1.70;;
52274;SDS011;38228;50.940;4.024;2023-09-19T10:07:48;8.48;;;1.63;;
52274;SDS011;38228;50.940;4.024;2023-09-19T10:13:09;11.55;;;1.70;;
52274;SDS011;38228;50.940;4.024;2023-09-19T10:15:44;9.77;;;1.65;;
52274;SDS011;38228;50.940;4.024;2023-09-19T10:18:21;5.38;;;1.50;;
52274;SDS011;38228;50.940;4.024;2023-09-19T10:20:51;9.40;;;1.65;;
52274;SDS011;38228;50.940;4.024;2023-09-19T10:23:18;8.88;;;1.30;;
52274;SDS011;38228;50.940;4.024;2023-09-19T10:25:48;10.68;;;1.63;;
52274;SDS011;38228;50.940;4.024;2023-09-19T10:28:16;6.75;;;1.30;;
52274;SDS011;38228;50.940;4.024;2023-09-19T10:30:47;11.05;;;1.83;;
52274;SDS011;38228;50.940;4.024;2023-09-19T10:33:16;4.95;;;1.30;;
52274;SDS011;38228;50.940;4.024;2023-09-19T10:35:46;11.73;;;1.38;;
52274;SDS011;38228;50.940;4.024;2023-09-19T10:38:13;10.43;;;1.38;;
52274;SDS011;38228;50.940;4.024;2023-09-19T10:40:40;5.75;;;1.38;;
52274;SDS011;38228;50.940;4.024;2023-09-19T10:43:11;17.02;;;1.40;;
52274;SDS011;38228;50.940;4.024;2023-09-19T10:45:42;8.13;;;1.17;;
52274;SDS011;38228;50.940;4.024;2023-09-19T10:48:10;5.63;;;1.45;;
52274;SDS011;38228;50.940;4.024;2023-09-19T10:50:41;7.88;;;1.27;;
52274;SDS011;38228;50.940;4.024;2023-09-19T10:56:27;6.97;;;1.35;;
52274;SDS011;38228;50.940;4.024;2023-09-19T11:07:10;5.53;;;1.08;;
52274;SDS011;38228;50.940;4.024;2023-09-19T11:12:11;6.07;;;0.90;;
52274;SDS011;38228;50.940;4.024;2023-09-19T11:14:38;8.73;;;1.38;;
52274;SDS011;38228;50.940;4.024;2023-09-19T11:26:01;3.75;;;1.00;;
52274;SDS011;38228;50.940;4.024;2023-09-19T11:30:43;4.93;;;1.10;;
52274;SDS011;38228;50.940;4.024;2023-09-19T11:33:28;5.15;;;0.80;;
52274;SDS011;38228;50.940;4.024;2023-09-19T11:44:31;6.05;;;0.88;;
52274;SDS011;38228;50.940;4.024;2023-09-19T11:49:23;7.80;;;1.00;;
52274;SDS011;38228;50.940;4.024;2023-09-19T11:51:55;4.97;;;0.85;;
52274;SDS011;38228;50.940;4.024;2023-09-19T11:54:21;5.10;;;1.02;;
52274;SDS011;38228;50.940;4.024;2023-09-19T11:56:48;4.50;;;1.02;;
52274;SDS011;38228;50.940;4.024;2023-09-19T11:59:22;5.53;;;0.82;;
52274;SDS011;38228;50.940;4.024;2023-09-19T12:01:58;7.57;;;1.52;;
52274;SDS011;38228;50.940;4.024;2023-09-19T12:04:37;5.68;;;1.13;;
52274;SDS011;38228;50.940;4.024;2023-09-19T12:07:12;7.80;;;1.30;;
52274;SDS011;38228;50.940;4.024;2023-09-19T12:09:42;2.95;;;1.10;;
52274;SDS011;38228;50.940;4.024;2023-09-19T12:12:11;6.30;;;1.30;;
52274;SDS011;38228;50.940;4.024;2023-09-19T12:14:47;4.70;;;0.80;;
52274;SDS011;38228;50.940;4.024;2023-09-19T12:17:14;5.28;;;1.00;;
52274;SDS011;38228;50.940;4.024;2023-09-19T12:19:49;4.40;;;0.80;;
52274;SDS011;38228;50.940;4.024;2023-09-19T12:22:17;6.38;;;1.08;;
52274;SDS011;38228;50.940;4.024;2023-09-19T12:24:45;6.72;;;1.27;;
52274;SDS011;38228;50.940;4.024;2023-09-19T12:27:11;9.73;;;1.23;;
52274;SDS011;38228;50.940;4.024;2023-09-19T12:29:56;5.82;;;1.10;;
52274;SDS011;38228;50.940;4.024;2023-09-19T12:32:34;9.48;;;1.00;;
52274;SDS011;38228;50.940;4.024;2023-09-19T12:35:00;4.57;;;0.90;;
52274;SDS011;38228;50.940;4.024;2023-09-19T12:37:32;5.82;;;1.27;;
52274;SDS011;38228;50.940;4.024;2023-09-19T12:40:07;6.07;;;1.10;;
52274;SDS011;38228;50.940;4.024;2023-09-19T12:42:42;4.55;;;1.05;;
52274;SDS011;38228;50.940;4.024;2023-09-19T12:45:09;9.07;;;1.27;;
52274;SDS011;38228;50.940;4.024;2023-09-19T12:47:38;11.90;;;1.25;;
52274;SDS011;38228;50.940;4.024;2023-09-19T12:52:38;6.60;;;1.33;;
52274;SDS011;38228;50.940;4.024;2023-09-19T12:55:05;5.30;;;1.05;;
52274;SDS011;38228;50.940;4.024;2023-09-19T12:57:35;8.85;;;1.33;;
52274;SDS011;38228;50.940;4.024;2023-09-19T13:00:01;5.45;;;1.17;;
52274;SDS011;38228;50.940;4.024;2023-09-19T13:02:28;7.25;;;1.58;;
52274;SDS011;38228;50.940;4.024;2023-09-19T13:04:54;5.90;;;1.20;;
52274;SDS011;38228;50.940;4.024;2023-09-19T13:07:40;4.20;;;1.10;;
52274;SDS011;38228;50.940;4.024;2023-09-19T13:10:14;5.30;;;1.23;;
52274;SDS011;38228;50.940;4.024;2023-09-19T13:12:41;6.65;;;1.08;;
52274;SDS011;38228;50.940;4.024;2023-09-19T13:15:14;4.60;;;1.10;;
52274;SDS011;38228;50.940;4.024;2023-09-19T13:17:49;9.05;;;1.27;;
52274;SDS011;38228;50.940;4.024;2023-09-19T13:20:25;7.60;;;1.30;;
52274;SDS011;38228;50.940;4.024;2023-09-19T13:23:04;8.55;;;1.25;;
52274;SDS011;38228;50.940;4.024;2023-09-19T13:25:35;4.53;;;1.17;;
52274;SDS011;38228;50.940;4.024;2023-09-19T13:28:10;7.70;;;1.50;;
52274;SDS011;38228;50.940;4.024;2023-09-19T13:30:36;6.20;;;1.27;;
52274;SDS011;38228;50.940;4.024;2023-09-19T13:33:10;3.42;;;1.10;;
52274;SDS011;38228;50.940;4.024;2023-09-19T13:35:38;3.97;;;0.98;;
52274;SDS011;38228;50.940;4.024;2023-09-19T13:38:07;6.38;;;1.02;;
52274;SDS011;38228;50.940;4.024;2023-09-19T13:40:36;5.05;;;0.90;;
52274;SDS011;38228;50.940;4.024;2023-09-19T13:43:04;5.70;;;1.30;;
52274;SDS011;38228;50.940;4.024;2023-09-19T13:45:31;5.57;;;1.23;;
52274;SDS011;38228;50.940;4.024;2023-09-19T13:47:57;3.78;;;1.10;;
52274;SDS011;38228;50.940;4.024;2023-09-19T13:50:24;5.38;;;1.20;;
52274;SDS011;38228;50.940;4.024;2023-09-19T13:52:50;5.20;;;1.27;;
52274;SDS011;38228;50.940;4.024;2023-09-19T13:55:17;7.13;;;1.20;;
52274;SDS011;38228;50.940;4.024;2023-09-19T13:57:45;6.95;;;1.30;;
52274;SDS011;38228;50.940;4.024;2023-09-19T14:00:24;8.50;;;1.23;;
52274;SDS011;38228;50.940;4.024;2023-09-19T14:02:50;5.07;;;1.10;;
52274;SDS011;38228;50.940;4.024;2023-09-19T14:05:16;5.20;;;1.38;;
52274;SDS011;38228;50.940;4.024;2023-09-19T14:07:42;5.00;;;1.13;;
52274;SDS011;38228;50.940;4.024;2023-09-19T14:10:08;5.80;;;1.33;;
52274;SDS011;38228;50.940;4.024;2023-09-19T14:12:36;5.68;;;1.30;;
52274;SDS011;38228;50.940;4.024;2023-09-19T14:15:02;6.55;;;1.27;;
52274;SDS011;38228;50.940;4.024;2023-09-19T14:17:29;8.30;;;1.50;;
52274;SDS011;38228;50.940;4.024;2023-09-19T14:19:54;5.75;;;1.30;;
52274;SDS011;38228;50.940;4.024;2023-09-19T14:22:20;7.45;;;1.88;;
52274;SDS011;38228;50.940;4.024;2023-09-19T14:24:47;7.50;;;2.40;;
52274;SDS011;38228;50.940;4.024;2023-09-19T14:27:13;13.75;;;1.85;;
52274;SDS011;38228;50.940;4.024;2023-09-19T14:29:38;5.38;;;1.15;;
52274;SDS011;38228;50.940;4.024;2023-09-19T14:32:04;6.95;;;1.75;;
52274;SDS011;38228;50.940;4.024;2023-09-19T14:34:30;10.45;;;1.80;;
52274;SDS011;38228;50.940;4.024;2023-09-19T14:36:56;7.15;;;2.05;;
52274;SDS011;38228;50.940;4.024;2023-09-19T14:39:22;5.13;;;1.05;;
52274;SDS011;38228;50.940;4.024;2023-09-19T14:41:48;6.93;;;1.35;;
52274;SDS011;38228;50.940;4.024;2023-09-19T14:44:14;5.78;;;1.55;;
52274;SDS011;38228;50.940;4.024;2023-09-19T14:46:43;5.35;;;1.40;;
52274;SDS011;38228;50.940;4.024;2023-09-19T14:49:10;8.70;;;1.80;;
52274;SDS011;38228;50.940;4.024;2023-09-19T14:51:37;7.80;;;1.42;;
52274;SDS011;38228;50.940;4.024;2023-09-19T14:54:05;7.05;;;1.70;;
52274;SDS011;38228;50.940;4.024;2023-09-19T14:56:32;9.00;;;1.48;;
52274;SDS011;38228;50.940;4.024;2023-09-19T14:58:58;9.68;;;1.83;;
52274;SDS011;38228;50.940;4.024;2023-09-19T15:01:24;6.07;;;1.60;;
52274;SDS011;38228;50.940;4.024;2023-09-19T15:03:50;5.72;;;1.50;;
52274;SDS011;38228;50.940;4.024;2023-09-19T15:06:16;10.93;;;1.98;;
52274;SDS011;38228;50.940;4.024;2023-09-19T15:08:45;4.68;;;1.40;;
52274;SDS011;38228;50.940;4.024;2023-09-19T15:11:18;7.25;;;1.48;;
52274;SDS011;38228;50.940;4.024;2023-09-19T15:13:45;7.68;;;1.15;;
52274;SDS011;38228;50.940;4.024;2023-09-19T15:16:12;8.70;;;2.05;;
52274;SDS011;38228;50.940;4.024;2023-09-19T15:18:39;7.13;;;1.55;;
52274;SDS011;38228;50.940;4.024;2023-09-19T15:21:10;7.55;;;1.60;;
52274;SDS011;38228;50.940;4.024;2023-09-19T15:23:37;6.28;;;1.65;;
52274;SDS011;38228;50.940;4.024;2023-09-19T15:26:04;8.95;;;1.38;;
52274;SDS011;38228;50.940;4.024;2023-09-19T15:28:31;6.30;;;1.55;;
52274;SDS011;38228;50.940;4.024;2023-09-19T15:31:00;5.13;;;1.70;;
52274;SDS011;38228;50.940;4.024;2023-09-19T15:33:33;6.47;;;1.58;;
52274;SDS011;38228;50.940;4.024;2023-09-19T15:36:03;7.57;;;1.92;;
52274;SDS011;38228;50.940;4.024;2023-09-19T15:41:37;9.63;;;1.92;;
52274;SDS011;38228;50.940;4.024;2023-09-19T15:44:13;4.97;;;1.83;;
52274;SDS011;38228;50.940;4.024;2023-09-19T15:46:40;5.63;;;1.70;;
52274;SDS011;38228;50.940;4.024;2023-09-19T15:49:07;7.45;;;1.73;;
52274;SDS011;38228;50.940;4.024;2023-09-19T15:51:34;7.00;;;1.67;;